Flight Track Log - Related Links

Times and Time Zones

All times are in EDT time to prevent confusion due to time zone crossing. See the SWA378 flight status page for this flight to view local times or setup timezone preferences in your user account.

Time Position Orientation Groundspeed Altitude Reporting Facility
EDT Latitude Longitude Course Direction KTS MPH feet Rate Location/Type
Mon 11:41:02 AM 37.4000 -121.9667 141° Southeast 185 213 2,700  Level Northern Cal TRACON
Mon 11:42:02 AM 37.4500 -121.9500 15° North 245 282 5,000 1,871 Climbing Northern Cal TRACON
Mon 11:44:24 AM 37.3475 -121.8147 134° Southeast 229 264 9,000 1,921 Climbing Oakland Center
Mon 11:45:25 AM 37.2881 -121.7481 138° Southeast 285 328 11,500 2,754 Climbing Oakland Center
Mon 11:46:00 AM 36.8523 -121.3770 141° Southeast  Level Estimated
Mon 11:46:26 AM 37.2158 -121.6681 139° Southeast 341 392 14,600  Level Oakland Center
Mon 11:47:28 AM 37.1406 -121.5836 138° Southeast 360 414 17,900 3,073 Climbing Oakland Center
Mon 11:48:29 AM 37.0597 -121.5014 141° Southeast 383 441 20,900 3,000 Climbing Oakland Center
Mon 11:49:30 AM 36.9819 -121.4106 137° Southeast 383 441 24,000 2,683 Climbing Oakland Center
Mon 11:50:32 AM 36.9008 -121.3206 138° Southeast 388 447 26,400 2,244 Climbing Oakland Center
Mon 11:51:33 AM 36.8003 -121.2181 141° Southeast 411 473 28,600 1,951 Climbing Oakland Center
Mon 11:52:35 AM 36.7133 -121.1186 137° Southeast 422 486 30,400 1,610 Climbing Oakland Center
Mon 11:53:36 AM 36.6208 -121.0208 140° Southeast 434 499 31,900 1,820 Climbing Oakland Center
Mon 11:54:37 AM 36.5272 -120.9211 139° Southeast 441 507 34,100 2,146 Climbing Oakland Center
Mon 11:55:39 AM 36.4381 -120.8222 138° Southeast 433 498 36,300 1,659 Climbing Oakland Center
Mon 11:56:40 AM 36.3503 -120.7247 138° Southeast 424 488 37,500 1,317 Climbing Oakland Center
Mon 11:57:42 AM 36.2422 -120.6119 140° Southeast 425 489 39,000 732 Climbing Oakland Center
Mon 11:58:43 AM 36.1547 -120.5167 139° Southeast 419 482 39,000  Level Oakland Center
Mon 11:59:45 AM 36.0656 -120.4183 138° Southeast 429 494 39,000  Level Oakland Center
Mon 12:00:46 PM 35.9797 -120.3319 141° Southeast 396 456 39,000  Level Oakland Center
Mon 12:01:48 PM 35.8925 -120.2386 139° Southeast 409 471 39,000  Level Oakland Center
Mon 12:02:50 PM 35.8042 -120.1447 139° Southeast 417 480 39,000  Level Oakland Center
Mon 12:03:51 PM 35.7161 -120.0511 139° Southeast 414 476 39,000  Level Oakland Center
Mon 12:04:53 PM 35.6269 -119.9611 141° Southeast 413 475 39,000  Level Oakland Center
Mon 12:05:54 PM 35.5319 -119.8783 145° Southeast 414 476 39,000 -293 Level Oakland Center
Mon 12:06:56 PM 35.4369 -119.7967 145° Southeast 414 476 38,400 -488 Descending Oakland Center
Mon 12:07:57 PM 35.3408 -119.7147 145° Southeast 416 479 38,000 -195 Descending Oakland Center
Mon 12:08:59 PM 35.2250 -119.6139 145° Southeast 422 486 38,000 -750 Level Oakland Center
Mon 12:10:05 PM 35.1300 -119.5331 145° Southeast 417 480 36,400 -2,016 Descending Los Angeles Center
Mon 12:11:07 PM 35.0369 -119.4528 145° Southeast 410 472 33,700 -2,661 Descending Los Angeles Center
Mon 12:12:09 PM 34.9408 -119.3708 145° Southeast 418 481 30,900 -2,903 Descending Los Angeles Center
Mon 12:13:11 PM 34.8222 -119.2706 145° Southeast 431 496 27,700 -2,661 Descending Los Angeles Center
Mon 12:14:13 PM 34.7250 -119.1900 146° Southeast 425 489 25,400 -2,226 Descending Los Angeles Center
Mon 12:15:15 PM 34.6342 -119.1125 145° Southeast 402 463 23,100 -2,226 Descending Los Angeles Center
Mon 12:16:17 PM 34.5375 -119.0319 146° Southeast 387 445 20,800 -2,177 Descending Los Angeles Center
Mon 12:17:19 PM 34.4525 -118.9639 147° Southeast 365 420 18,600 -2,129 Descending Los Angeles Center
Mon 12:18:21 PM 34.3714 -118.8944 145° Southeast 356 410 16,400 -1,935 Descending Los Angeles Center
Mon 12:19:23 PM 34.2800 -118.8544 160° South 348 400 14,600 -1,152 Descending Los Angeles Center
Mon 12:20:26 PM 34.1947 -118.8778 193° South 315 362 14,000 -1,152 Descending Los Angeles Center
Mon 12:21:28 PM 34.1031 -118.9019 192° South 280 322 12,200 -1,548 Descending Los Angeles Center
Mon 12:22:30 PM 34.0625 -118.8267 123° Southeast 289 333 10,800 -1,113 Descending Los Angeles Center
Mon 12:23:32 PM 34.0486 -118.7278 100° East 289 333 9,900 -629 Descending Los Angeles Center
Mon 12:24:34 PM 34.0356 -118.6353 100° East 258 297 9,500 -677 Descending Los Angeles Center
Mon 12:25:36 PM 34.0261 -118.5700 100° East 257 296 8,500 -1,210 Descending Los Angeles Center
Mon 12:26:38 PM 34.0117 -118.4661 99° East 255 293 7,000 -1,210 Descending Los Angeles Center
Mon 12:27:40 PM 34.0189 -118.3753 84° East 255 293 6,000 -677 Descending Los Angeles Center
Mon 12:28:42 PM 34.0250 -118.3122 83° East 246 283 5,600 -960 Descending Los Angeles Center
Mon 12:29:45 PM 34.0222 -118.2314 92° East 221 254 4,000 -1,403 Descending Los Angeles Center
Mon 12:30:46 PM 33.9811 -118.2336 183° South 212 244 2,700 -1,161 Descending Los Angeles Center
Mon 12:31:49 PM 33.9628 -118.3028 252° West 193 222 1,600 -864 Descending Los Angeles Center
Mon 12:32:51 PM 33.9575 -118.3542 263° West 173 199 900 -677 Descending Los Angeles Center
Mon 12:35:00 PM 33.9333 -118.4000 228° Southwest  Level FlightAware Approximate
Mon 12:42:00 PM 33.9425 -118.4081 228° Southwest  Level Estimated

Login

Don't have an account? Register now (free) for customized features, flight alerts, and more!